Timeline UpdatesTrip UpdatesNews PostsPvt PostsTravel TipsAdmin PostsConv PostsFollowed PostsChat RequestsBlog PostsPNR Posts

Disclaimer
Search
 
 
Wed Sep 3, 2014 12:31:37 ISTHomeTrainsΣChainsAtlasPNRForumGalleryNewsFAQTripsMembersLoginFeedback
No Recent News for this Train
Other Trains in the News **new
Latest...
.
Sun Oct 07, 2012 (10:22AM)
⇐ Return Journey: Train# 57660

57659/Solapur - Falaknuma Passenger (UnReserved)

OLD Time-Table. Click here to UPDATE TT
Sep 12 2013 (2:26PM)
Change Departure Station:
Change Arrival Station:
Post a Train Travel TipPost a Train Travel Tip **new
Post a Comment/Question/Picture/VideoPost a Comment/Question/Picture/Video
Pantry/Catering
✕ NO Pantry Car
✕ NO Catering
RSA - Rake Sharing
57642 GDG SUR Passenger
Rake/Coach Composition
Loco, SLR, UR 1 To UR 9, SLR
Loco
#WDM 2a Pune/Maula ali Shed
News    PNR    Forum    Time-Table    Availability    Fare Chart    Map    Arr/Dep History    Trips    Gallery    ΣChains    X/O    Timeline    
Travel Time: 3h 55m    17 halts    Distance: 149 km    Avg Speed: 38 km/hr
Type: Passenger
Zone: SCR/South Central
Departs @ 10:20
Platform# 2
SMTWTFS
Solapur/SUR 
Arrives @ 14:15
Platform# 1
SMTWTFS
Wadi Junction/WADI 

17 halts. 17 intermediate Stations between Solapur and Wadi Junction

Show ALL intermediate Stations  

#CodeStation NameX/OArrivesAvgDepartsAvgHaltPFDay#KmSpeedElevZoneAddress
1SUR»Solapur (5)»  -10:20-210.041461mCRSolapur 413001, Maharashtra
2TKWDTikekarwadi (2)  10:30-10:31-1m--16.969477mCRSolapur, Maharashtra
3HGHotgi Junction (3)X  10:38-10:40-2m3114.956473mCRHotgi 413215, Maharashtra
4TLTTilati  10:50-10:51-1m--124.366454mCRAkalkot Road, Maharashtra
5AKORAkalkot Road (2)X  11:01-11:02-1m--135.346456mCRDist Solapur, Maharashtra
6NGSNagansur  11:09-11:10-1m--140.737487mCRSolapur, Maharashtra
7BOTBoroti  11:24-11:25-1m--149.260466mCRSolapur, Maharashtra
8DUDDudhani (2)X  11:39-11:40-1m1163.241457mCRSolapur, Maharashtra
9KUIKulali  11:54-11:55-1m--172.848455mCRBhognalli - Ravoor - Dudhani Rd, Karnataka
10GDGNGaudgaon  12:04-12:05-1m--180.053444mCRBhognalli Sindnoor Rd, Karnataka
11GURGanagapur Road  12:12-12:13-1m--186.254445mCRDist Gulbarga, Karnataka
12HHDHunsihadgil  12:20-12:22-2m--192.563479mCRGulburga, Karnataka
13SVGSawalgi  12:29-12:31-2m--199.955462mCRGulburga, Karnataka
14BBDBabladX  12:39-12:40-1m--1107.216461mCRGulburga, Karnataka
15GRGulbarga (4)  13:00-13:05-5m21112.648458mCRGulbarga 585101, Karnataka
16HQRHirenanduru  13:16-13:17-1m--1121.465469mCRNandoor K, Karnataka
17MRMartur  13:24-13:25-1m--1129.018427mCRGulbarga, Karnataka
18SDBShahabad (3)  13:59-14:00-1m21139.340403mCRShahabad, Karnataka
19WADI•Wadi Junction (4)•  14:15-14:20-5m11149.453431mCRWadi, Karnataka
20SUHSulehalli (1)  14:30-14:31-1m11158.360447mSCRState Highway 51, Karnataka
21CTChittapur (3)X  14:37-14:38-1m--1164.358427mSCRChitapur, Karnataka
22MQRMalkhaid Road (2)  14:48-14:49-1m--1174.073431mSCRMalkhaid Road, Karnataka
23SEMSedam (3)  14:59-15:00-1m--1186.163420mSCRSedam ph.no 08441 276066, Karnataka
24KQTKurgunta  15:08-15:09-1m--1194.546421mSCRGulbarga, Karnataka
25NAWNawandgi (2)X  15:19-15:20-1m--1202.159437mSCRTandur, Telangana
26MVHMantatti (2)X  15:29-15:30-1m--1211.026443mSCRMantatte Tandur, Telangana
27TDUTandur (3)  15:50-15:52-2m--1219.659457mSCRTandur, Telangana
28RMYRukmapur (2)X  16:03-16:04-1m--1230.451465mSCRRangareddy Dist, Telangana
29DRRDharurX  16:15-16:16-1m--1239.892513mSCRRangareddy District, Telangana
30MWYMailaram (2)X  16:20-16:21-1m--1245.9101547mSCRRangareddy District, Telangana
31GDQGodamgura (2)X  16:25-16:26-1m--1252.660590mSCRRangareddy Dist., Telangana
32VKBVikarabad Junction (3)X  16:35-16:45-10m11261.7105633mSCRRangareddy Dist., Telangana
33CTFChitgidda  16:51-16:52-1m--1272.152607mSCRRangareddy Dist., Telangana
34GGDGullagudaX  17:00-17:01-1m--1279.074599mSCRRangareddy Dist., Telangana
35RPKRavulapalli Kalan (2)  17:06-17:07-1m11285.29582mSCRRangareddy Dist., Telangana
36SKPShankarpalli (2)X  17:44-17:45-1m11290.673574mSCRRangareddy Dist., Telangana
37NPLNagalapalle (2)  17:54-17:55-1m11301.583561mSCRMedak Dist., Telangana
38LPILingampalli (6)X  18:02-18:03-1m21311.252558mSCRRangareddy Dist., Telangana
39HFZHafizpet (2)X  18:09-18:10-1m11316.562590mSCRHyderabad, Telangana
40SNFSanathnagar (3)X  18:19-18:20-1m11325.824547mSCRHyderabad, Telangana
41BMTBegumpet (2)XO  18:29-18:30-1m11329.412531mSCRHyderabad, Telangana
42SCSecunderabad Junction (10)O  18:55-19:00-5m41334.225539mSCRSecunderabad 500003, Telangana
43STPDSitafalmandi (4)  19:05-19:06-1m31336.366533mSCRSecunderabad, Telangana
44ATCArts College (2)  19:07-19:08-1m--1337.436521mSCRHyderabad, Telangana
45JOOJamai Osmania (2)XO  19:09-19:10-1m--1338.088515mSCRHyderabad, Telangana
46VARVidya Nagar (2)X  19:11-19:12-1m--1339.514505mSCRHyderabad, Telangana
47KCGHyderabad Kacheguda (5)X  19:20-19:22-2m--1341.448494mSCRHyderabad - 500027, Telangana
48MXTMalakpet (2)  19:24-19:25-1m21343.038494mSCRHyderabad, Telangana
49DQRDabirpura (2)O  19:27-19:28-1m--1344.212500mSCRHyderabad, Telangana
50YKAYakutpura (2)  19:32-19:33-1m--1345.049505mSCRHyderabad, Telangana
51HPGHuppuguda (2)  19:36-19:37-1m--1347.43520mSCRHyderabad, Telangana
52FMFalaknuma (3)  20:05----1348.7-523mSCRHyderabad, Telangana
Scroll to Top
Scroll to Bottom